Time;durP1;ratioP1;P1;durP2;ratioP2;P2;SDS_P1;SDS_P2;PMS_P1;PMS_P2;Temp;Humidity;BMP_temperature;BMP_pressure;BME280_temperature;BME280_humidity;BME280_pressure;Samples;Min_cycle;Max_cycle;Signal;HPM_P1;HPM_P2
2021/09/28 00:01:17;;;;;;;14.32;6.57;;;11.30;99.90;;;;;;4127561;28;20105;-71
2021/09/28 00:03:18;;;;;;;20.48;6.82;;;11.30;99.90;;;;;;4113007;28;20755;-71
2021/09/28 00:05:18;;;;;;;17.38;6.47;;;11.40;99.90;;;;;;4114522;28;20070;-70
2021/09/28 00:07:19;;;;;;;18.50;6.15;;;11.40;99.90;;;;;;4110721;28;20130;-70
2021/09/28 00:09:20;;;;;;;25.38;7.47;;;11.40;99.90;;;;;;4113620;28;20556;-70
2021/09/28 00:11:21;;;;;;;15.93;6.00;;;11.20;99.90;;;;;;4112232;28;20054;-71
2021/09/28 00:13:22;;;;;;;18.55;6.18;;;11.20;99.90;;;;;;4114047;28;20055;-70
2021/09/28 00:15:23;;;;;;;11.98;6.30;;;11.20;99.90;;;;;;4131860;28;20066;-70
2021/09/28 00:17:23;;;;;;;23.48;7.15;;;11.10;99.90;;;;;;4107156;28;20498;-72
2021/09/28 00:19:24;;;;;;;20.00;6.57;;;11.00;99.90;;;;;;4117327;28;20047;-70
2021/09/28 00:21:26;;;;;;;15.80;6.35;;;10.90;99.90;;;;;;4107194;28;20042;-70
2021/09/28 00:23:27;;;;;;;16.13;6.82;;;10.90;99.90;;;;;;4104586;28;20141;-70
2021/09/28 00:25:27;;;;;;;21.75;8.38;;;10.90;99.90;;;;;;4114096;28;20039;-70
2021/09/28 00:27:29;;;;;;;19.55;7.40;;;10.90;99.90;;;;;;4113871;28;20034;-70
2021/09/28 00:29:30;;;;;;;16.65;7.35;;;10.90;99.90;;;;;;4115380;28;20043;-70
2021/09/28 00:31:31;;;;;;;26.02;8.80;;;10.80;99.90;;;;;;4113576;28;20034;-70
2021/09/28 00:33:32;;;;;;;21.75;8.10;;;10.70;99.90;;;;;;4127686;28;20073;-69
2021/09/28 00:35:33;;;;;;;30.70;9.02;;;10.70;99.90;;;;;;4112712;28;20085;-71
2021/09/28 00:37:34;;;;;;;23.67;7.35;;;10.70;99.90;;;;;;4114951;28;20042;-70
2021/09/28 00:39:35;;;;;;;23.30;7.53;;;10.80;99.90;;;;;;4114092;28;20478;-70
2021/09/28 00:41:36;;;;;;;18.98;8.00;;;10.90;99.90;;;;;;4109147;28;20067;-70
2021/09/28 00:43:49;;;;;;;17.25;8.30;;;10.80;99.90;;;;;;4114816;28;20094;-71
2021/09/28 00:45:49;;;;;;;22.50;7.47;;;10.90;99.90;;;;;;4113834;28;20093;-72
2021/09/28 00:47:51;;;;;;;31.13;9.48;;;10.90;99.90;;;;;;4114251;28;20050;-70
2021/09/28 00:49:52;;;;;;;20.40;7.40;;;10.90;99.90;;;;;;4105842;28;20051;-70
2021/09/28 00:51:53;;;;;;;22.00;8.25;;;10.70;99.90;;;;;;4128415;28;20034;-70
2021/09/28 00:53:55;;;;;;;17.15;7.95;;;10.80;99.90;;;;;;4113435;28;20055;-72
2021/09/28 00:55:59;;;;;;;24.75;8.35;;;11.60;99.90;;;;;;4128068;28;20071;-70
2021/09/28 00:58:05;;;;;;;26.15;7.45;;;10.70;99.90;;;;;;4112071;28;20038;-70
2021/09/28 01:00:08;;;;;;;23.77;7.85;;;10.70;99.90;;;;;;4109560;28;20039;-70
2021/09/28 01:02:10;;;;;;;22.07;7.57;;;10.80;99.90;;;;;;4126958;28;20085;-71
2021/09/28 01:04:16;;;;;;;18.67;7.85;;;10.90;99.90;;;;;;4110990;28;20060;-71
2021/09/28 01:06:17;;;;;;;16.88;7.78;;;10.90;99.90;;;;;;4113316;28;20550;-70
2021/09/28 01:08:17;;;;;;;18.17;7.72;;;10.90;99.90;;;;;;4113935;28;20035;-70
2021/09/28 01:10:18;;;;;;;20.35;8.10;;;10.90;99.90;;;;;;4112169;28;20038;-71
2021/09/28 01:12:19;;;;;;;24.15;8.05;;;11.00;99.90;;;;;;4127210;28;20041;-70
2021/09/28 01:14:20;;;;;;;18.17;8.00;;;11.00;99.90;;;;;;4114129;28;20031;-70
2021/09/28 01:16:21;;;;;;;17.88;6.78;;;11.00;99.90;;;;;;4109497;28;20475;-70
2021/09/28 01:18:22;;;;;;;23.08;8.35;;;10.90;99.90;;;;;;4113658;28;20559;-70
2021/09/28 01:20:23;;;;;;;22.88;8.68;;;10.90;99.90;;;;;;4112016;28;20039;-70
2021/09/28 01:22:24;;;;;;;17.23;8.07;;;10.90;99.90;;;;;;4113809;28;20446;-70
2021/09/28 01:24:26;;;;;;;20.05;7.75;;;10.90;99.90;;;;;;4113349;28;20462;-71
2021/09/28 01:26:27;;;;;;;23.60;7.88;;;10.80;99.90;;;;;;4113137;28;20034;-70
2021/09/28 01:28:28;;;;;;;20.63;7.10;;;10.90;99.90;;;;;;4113031;28;20549;-71
2021/09/28 01:30:29;;;;;;;19.65;7.88;;;10.80;99.90;;;;;;4125612;28;20041;-70
2021/09/28 01:32:29;;;;;;;17.35;7.95;;;10.90;99.90;;;;;;4112921;28;20030;-71
2021/09/28 01:34:31;;;;;;;26.42;8.43;;;10.80;99.90;;;;;;4113325;28;20039;-71
2021/09/28 01:36:31;;;;;;;19.30;6.70;;;10.80;99.90;;;;;;4104630;28;20554;-71
2021/09/28 01:38:32;;;;;;;23.75;8.80;;;10.70;99.90;;;;;;4095845;28;20035;-71
2021/09/28 01:40:34;;;;;;;21.08;7.80;;;10.70;99.90;;;;;;4120386;28;20038;-71
2021/09/28 01:42:35;;;;;;;19.90;7.20;;;10.60;99.90;;;;;;4112661;28;20030;-71
2021/09/28 01:44:36;;;;;;;23.17;7.07;;;10.60;99.90;;;;;;4112726;28;20501;-71
2021/09/28 01:46:39;;;;;;;25.15;7.85;;;10.50;99.90;;;;;;4113735;28;20426;-71
2021/09/28 01:48:52;;;;;;;27.52;9.43;;;10.60;99.90;;;;;;4117658;28;20046;-70
2021/09/28 01:50:53;;;;;;;28.38;7.00;;;10.60;99.90;;;;;;4127770;28;20038;-71
2021/09/28 01:52:53;;;;;;;19.40;8.05;;;10.60;99.90;;;;;;4098021;28;20039;-72
2021/09/28 01:54:54;;;;;;;22.88;7.78;;;10.60;99.90;;;;;;4114445;28;20081;-72
2021/09/28 01:56:55;;;;;;;16.90;7.35;;;10.60;99.90;;;;;;4123033;28;20051;-71
2021/09/28 01:58:58;;;;;;;19.00;7.65;;;10.60;99.90;;;;;;4112459;28;20081;-72
2021/09/28 02:00:59;;;;;;;15.63;7.88;;;10.50;99.90;;;;;;4112994;28;20027;-71
2021/09/28 02:03:00;;;;;;;24.15;9.80;;;10.50;99.90;;;;;;4095714;28;20118;-72
2021/09/28 02:05:01;;;;;;;26.55;7.70;;;10.60;99.90;;;;;;4113247;28;20039;-71
2021/09/28 02:07:01;;;;;;;27.17;8.00;;;10.60;99.90;;;;;;4112502;28;21704;-72
2021/09/28 02:09:05;;;;;;;20.67;7.88;;;10.50;99.90;;;;;;4112436;28;20066;-72
2021/09/28 02:11:05;;;;;;;25.20;8.23;;;10.40;99.90;;;;;;4113436;28;20105;-69
2021/09/28 02:13:06;;;;;;;22.10;9.25;;;10.40;99.90;;;;;;4111445;28;20035;-70
2021/09/28 02:15:08;;;;;;;30.98;9.18;;;10.50;99.90;;;;;;4112872;28;20034;-71
2021/09/28 02:17:08;;;;;;;21.67;7.80;;;10.60;99.90;;;;;;4127876;28;20042;-71
2021/09/28 02:19:09;;;;;;;27.58;9.48;;;10.60;99.90;;;;;;4113759;28;20573;-72
2021/09/28 02:21:10;;;;;;;27.10;8.45;;;10.50;99.90;;;;;;4112705;28;20477;-71
2021/09/28 02:23:11;;;;;;;20.40;8.63;;;10.60;99.90;;;;;;4111604;28;20063;-71
2021/09/28 02:25:13;;;;;;;21.02;7.72;;;10.60;99.90;;;;;;4128674;28;20418;-71
2021/09/28 02:27:14;;;;;;;20.17;7.75;;;10.80;99.90;;;;;;4108070;28;20071;-71
2021/09/28 02:29:14;;;;;;;24.65;9.45;;;10.70;99.90;;;;;;4107771;28;20418;-71
2021/09/28 02:31:15;;;;;;;22.23;9.20;;;10.70;99.90;;;;;;4111546;28;20417;-71
2021/09/28 02:33:16;;;;;;;22.17;8.32;;;10.60;99.90;;;;;;4113316;28;20139;-71
2021/09/28 02:35:17;;;;;;;24.63;8.77;;;10.50;99.90;;;;;;4114493;28;20031;-71
2021/09/28 02:37:18;;;;;;;29.90;8.45;;;10.40;99.90;;;;;;4115350;28;20086;-71
2021/09/28 02:39:19;;;;;;;24.95;9.38;;;10.40;99.90;;;;;;4107577;28;20435;-71
2021/09/28 02:41:20;;;;;;;23.00;8.18;;;10.50;99.90;;;;;;4126753;28;20066;-70
2021/09/28 02:43:20;;;;;;;33.08;9.30;;;10.40;99.90;;;;;;4115081;28;20169;-71
2021/09/28 02:45:22;;;;;;;24.77;8.20;;;10.40;99.90;;;;;;4115641;28;20545;-72
2021/09/28 02:47:23;;;;;;;23.05;9.13;;;10.30;99.90;;;;;;4110595;28;20054;-71
2021/09/28 02:49:24;;;;;;;24.15;9.25;;;10.30;99.90;;;;;;4125805;28;20045;-71
2021/09/28 02:51:25;;;;;;;18.48;8.18;;;10.20;99.90;;;;;;4116353;28;20125;-71
2021/09/28 02:53:26;;;;;;;21.75;9.02;;;10.00;99.90;;;;;;4125979;28;20053;-71
2021/09/28 02:55:28;;;;;;;23.70;9.57;;;9.90;99.90;;;;;;4114133;28;20035;-71
2021/09/28 02:57:29;;;;;;;29.80;10.75;;;9.80;99.90;;;;;;4113127;28;20034;-70
2021/09/28 02:59:30;;;;;;;29.17;12.05;;;9.70;99.90;;;;;;4130094;28;20042;-71
2021/09/28 03:01:31;;;;;;;24.85;10.93;;;9.70;99.90;;;;;;4111022;28;20047;-72
2021/09/28 03:03:32;;;;;;;23.08;9.40;;;9.70;99.90;;;;;;4116943;28;20430;-71
2021/09/28 03:05:33;;;;;;;35.53;12.60;;;9.60;99.90;;;;;;4127343;28;20121;-70
2021/09/28 03:07:34;;;;;;;22.48;10.15;;;9.60;99.90;;;;;;4114170;28;20039;-70
2021/09/28 03:09:35;;;;;;;25.05;9.93;;;9.50;99.90;;;;;;4104536;28;20031;-70
2021/09/28 03:11:37;;;;;;;28.60;10.77;;;9.50;99.90;;;;;;4125203;28;20046;-71
2021/09/28 03:13:38;;;;;;;31.42;11.15;;;9.50;99.90;;;;;;4119743;28;20046;-71
2021/09/28 03:15:39;;;;;;;20.23;10.57;;;9.60;99.90;;;;;;4116021;28;20529;-72
2021/09/28 03:17:40;;;;;;;27.60;11.88;;;9.60;99.90;;;;;;4092657;28;20066;-71
2021/09/28 03:19:40;;;;;;;24.38;11.00;;;9.60;99.90;;;;;;4101754;28;20047;-72
2021/09/28 03:21:42;;;;;;;27.73;12.50;;;9.60;99.90;;;;;;4114601;28;20037;-71
2021/09/28 03:23:43;;;;;;;28.30;11.00;;;9.60;99.90;;;;;;4113179;28;20046;-72
2021/09/28 03:25:45;;;;;;;37.13;11.82;;;9.60;99.90;;;;;;4121446;28;20108;-72
2021/09/28 03:27:46;;;;;;;24.95;11.75;;;9.60;99.90;;;;;;4093949;28;20050;-72
2021/09/28 03:29:47;;;;;;;25.95;11.48;;;9.60;99.90;;;;;;4113615;28;20042;-72
2021/09/28 03:31:48;;;;;;;33.80;12.05;;;9.60;99.90;;;;;;4113653;28;20129;-72
2021/09/28 03:33:49;;;;;;;26.40;10.27;;;9.60;99.90;;;;;;4127682;28;20552;-72
2021/09/28 03:35:49;;;;;;;22.70;10.73;;;9.60;99.90;;;;;;4129118;28;20038;-72
2021/09/28 03:37:52;;;;;;;28.92;11.18;;;9.50;99.90;;;;;;4106423;28;20145;-72
2021/09/28 03:39:53;;;;;;;22.05;11.07;;;9.50;99.90;;;;;;4114999;28;20041;-72
2021/09/28 03:41:54;;;;;;;22.85;11.15;;;9.50;99.90;;;;;;4125836;28;20522;-72
2021/09/28 03:43:55;;;;;;;27.77;12.15;;;9.40;99.90;;;;;;4115334;28;20054;-72
2021/09/28 03:45:56;;;;;;;28.75;11.52;;;9.50;99.90;;;;;;4106481;28;20039;-72
2021/09/28 03:47:57;;;;;;;28.55;11.77;;;9.50;99.90;;;;;;4114149;28;20110;-71
2021/09/28 03:49:57;;;;;;;31.05;12.85;;;9.50;99.90;;;;;;4115554;28;20651;-72
2021/09/28 03:51:58;;;;;;;27.33;11.80;;;9.40;99.90;;;;;;4115809;28;20098;-72
2021/09/28 03:53:59;;;;;;;25.02;11.13;;;9.30;99.90;;;;;;4121659;28;20054;-72
2021/09/28 03:56:00;;;;;;;25.95;11.55;;;9.30;99.90;;;;;;4106775;28;20081;-72
2021/09/28 03:58:01;;;;;;;27.05;11.88;;;9.30;99.90;;;;;;4098790;28;20035;-71
2021/09/28 04:00:03;;;;;;;28.35;12.00;;;9.30;99.90;;;;;;4132379;28;20058;-73
2021/09/28 04:02:04;;;;;;;29.50;13.15;;;9.30;99.90;;;;;;4126930;28;20042;-72
2021/09/28 04:04:05;;;;;;;24.08;10.57;;;9.30;99.90;;;;;;4100099;28;20458;-72
2021/09/28 04:06:06;;;;;;;27.15;10.82;;;9.20;99.90;;;;;;4101457;28;20047;-71
2021/09/28 04:08:07;;;;;;;23.17;10.85;;;9.20;99.90;;;;;;4125486;28;20106;-71
2021/09/28 04:10:10;;;;;;;28.00;10.50;;;9.10;99.90;;;;;;4113259;28;20047;-71
2021/09/28 04:12:11;;;;;;;33.00;11.20;;;9.00;99.90;;;;;;4122776;28;20038;-71
2021/09/28 04:14:15;;;;;;;22.25;10.95;;;8.90;99.90;;;;;;4113946;28;20494;-71
2021/09/28 04:16:17;;;;;;;27.90;10.35;;;9.00;99.90;;;;;;4100189;28;20051;-71
2021/09/28 04:18:17;;;;;;;29.50;10.00;;;9.00;99.90;;;;;;4097544;28;20091;-71
2021/09/28 04:20:19;;;;;;;29.83;9.88;;;9.00;99.90;;;;;;4121069;28;20031;-71
2021/09/28 04:22:22;;;;;;;24.67;10.80;;;8.90;99.90;;;;;;4124563;28;20064;-71
2021/09/28 04:24:23;;;;;;;24.73;10.23;;;8.80;99.90;;;;;;4113198;28;20035;-71
2021/09/28 04:26:24;;;;;;;26.20;10.23;;;8.80;99.90;;;;;;4112990;28;20031;-71
2021/09/28 04:28:25;;;;;;;30.05;10.93;;;8.80;99.90;;;;;;4114539;28;20045;-72
2021/09/28 04:30:26;;;;;;;24.88;10.40;;;8.80;99.90;;;;;;4114817;28;20070;-72
2021/09/28 04:32:27;;;;;;;34.75;11.38;;;8.80;99.90;;;;;;4110486;28;20031;-71
2021/09/28 04:34:28;;;;;;;38.25;11.95;;;8.70;99.90;;;;;;4114872;28;20122;-71
2021/09/28 04:36:29;;;;;;;25.65;9.48;;;8.80;99.90;;;;;;4114415;28;20027;-71
2021/09/28 04:38:29;;;;;;;30.27;11.00;;;8.70;99.90;;;;;;4127795;28;20042;-71
2021/09/28 04:40:30;;;;;;;24.10;9.82;;;8.70;99.90;;;;;;4097373;28;20031;-71
2021/09/28 04:42:31;;;;;;;24.90;10.07;;;8.70;99.90;;;;;;4113828;28;20034;-71
2021/09/28 04:44:32;;;;;;;26.40;10.55;;;8.70;99.90;;;;;;4113356;28;20035;-72
2021/09/28 04:46:33;;;;;;;22.40;9.80;;;8.70;99.90;;;;;;4113738;28;20154;-72
2021/09/28 04:48:33;;;;;;;24.58;9.63;;;8.70;99.90;;;;;;4112525;28;20073;-72
2021/09/28 04:50:34;;;;;;;31.55;11.13;;;8.70;99.90;;;;;;4125320;28;20038;-71
2021/09/28 04:52:38;;;;;;;23.95;10.02;;;8.70;99.90;;;;;;4113919;28;20119;-71
2021/09/28 04:54:39;;;;;;;25.65;9.70;;;8.80;99.90;;;;;;4111943;28;20035;-72
2021/09/28 04:56:40;;;;;;;25.65;10.15;;;8.80;99.90;;;;;;4114352;28;20030;-71
2021/09/28 04:58:41;;;;;;;30.85;9.98;;;8.90;99.90;;;;;;4125247;28;20034;-71
2021/09/28 05:00:42;;;;;;;27.25;10.80;;;8.90;99.90;;;;;;4114185;28;20042;-71
2021/09/28 05:02:44;;;;;;;25.60;9.75;;;8.80;99.90;;;;;;4111808;28;20157;-71
2021/09/28 05:04:44;;;;;;;30.73;9.15;;;8.80;99.90;;;;;;4111102;28;20110;-71
2021/09/28 05:06:45;;;;;;;24.42;8.15;;;8.90;99.90;;;;;;4111566;28;20135;-71
2021/09/28 05:08:46;;;;;;;17.95;9.52;;;8.90;99.90;;;;;;4114005;28;20035;-70
2021/09/28 05:10:47;;;;;;;19.60;8.77;;;9.00;99.90;;;;;;4111951;28;20053;-71
2021/09/28 05:12:48;;;;;;;32.03;9.45;;;8.90;99.90;;;;;;4105565;28;20044;-72
2021/09/28 05:14:49;;;;;;;26.75;8.30;;;8.90;99.90;;;;;;4096470;29;20053;-72
2021/09/28 05:16:49;;;;;;;27.63;9.40;;;8.80;99.90;;;;;;4110821;28;20113;-72
2021/09/28 05:18:50;;;;;;;21.75;7.88;;;8.70;99.90;;;;;;4114812;28;20039;-71
2021/09/28 05:20:50;;;;;;;27.00;9.43;;;8.70;99.90;;;;;;4113966;28;20027;-72
2021/09/28 05:22:51;;;;;;;33.05;9.65;;;8.70;99.90;;;;;;4096563;28;20154;-71
2021/09/28 05:24:52;;;;;;;19.80;8.10;;;8.80;99.90;;;;;;4112988;28;20038;-71
2021/09/28 05:26:53;;;;;;;25.92;9.50;;;8.80;99.90;;;;;;4126960;28;20049;-71
2021/09/28 05:28:53;;;;;;;22.73;11.38;;;8.90;99.90;;;;;;4113919;28;20391;-71
2021/09/28 05:30:54;;;;;;;23.63;9.63;;;8.90;99.90;;;;;;4125286;28;20107;-71
2021/09/28 05:32:55;;;;;;;28.73;12.25;;;9.00;99.90;;;;;;4096728;28;20502;-71
2021/09/28 05:34:56;;;;;;;37.45;19.10;;;9.00;99.90;;;;;;4130743;28;20041;-71
2021/09/28 05:36:57;;;;;;;28.27;11.23;;;9.00;99.90;;;;;;4113091;28;20069;-72
2021/09/28 05:38:58;;;;;;;29.50;10.27;;;8.90;99.90;;;;;;4101048;28;20477;-71
2021/09/28 05:41:03;;;;;;;24.55;9.30;;;8.90;99.90;;;;;;4128648;28;20035;-71
2021/09/28 05:43:04;;;;;;;28.42;8.85;;;8.90;99.90;;;;;;4115628;28;20050;-72
2021/09/28 05:45:06;;;;;;;27.58;8.68;;;8.90;99.90;;;;;;4125329;28;20129;-72
2021/09/28 05:47:06;;;;;;;33.35;10.95;;;8.90;99.90;;;;;;4124767;28;20038;-72
2021/09/28 05:49:07;;;;;;;28.88;8.82;;;8.90;99.90;;;;;;4109656;28;20129;-71
2021/09/28 05:51:17;;;;;;;26.05;10.13;;;8.80;99.90;;;;;;4109268;28;20031;-71
2021/09/28 05:53:18;;;;;;;30.50;10.70;;;9.00;99.90;;;;;;4108156;28;20039;-70
2021/09/28 05:55:18;;;;;;;36.53;11.18;;;9.00;99.90;;;;;;4123930;28;20410;-71
2021/09/28 05:57:23;;;;;;;35.63;10.45;;;9.10;99.90;;;;;;4112043;28;20114;-71
2021/09/28 05:59:24;;;;;;;31.73;9.52;;;9.20;99.90;;;;;;4123141;28;20038;-71
2021/09/28 06:01:25;;;;;;;28.60;9.13;;;9.10;99.90;;;;;;4111125;28;20045;-71
2021/09/28 06:03:26;;;;;;;18.73;8.88;;;9.10;99.90;;;;;;4113541;28;20046;-71
2021/09/28 06:05:26;;;;;;;27.80;10.50;;;9.10;99.90;;;;;;4120521;28;20035;-71
2021/09/28 06:07:27;;;;;;;30.05;10.85;;;9.10;99.90;;;;;;4112229;28;20034;-70
2021/09/28 06:09:29;;;;;;;35.53;11.00;;;9.20;99.90;;;;;;4099407;28;20036;-72
2021/09/28 06:11:30;;;;;;;27.20;9.82;;;9.20;99.90;;;;;;4114491;28;20042;-70
2021/09/28 06:13:31;;;;;;;21.88;9.57;;;9.20;99.90;;;;;;4131549;28;20070;-71
2021/09/28 06:15:32;;;;;;;40.72;12.98;;;9.30;99.90;;;;;;4115682;28;20073;-71
2021/09/28 06:17:33;;;;;;;31.88;12.55;;;9.40;99.90;;;;;;4115236;28;20050;-71
2021/09/28 06:19:35;;;;;;;28.63;11.27;;;9.50;99.90;;;;;;4115673;28;20074;-71
2021/09/28 06:21:36;;;;;;;26.73;10.73;;;9.50;99.90;;;;;;4130424;28;20411;-71
2021/09/28 06:23:36;;;;;;;30.08;10.73;;;9.60;99.90;;;;;;4126020;28;20102;-72
2021/09/28 06:25:38;;;;;;;25.38;10.52;;;9.60;99.90;;;;;;4115845;28;20118;-71
2021/09/28 06:27:39;;;;;;;28.55;9.32;;;9.70;99.90;;;;;;4133644;28;20038;-72
2021/09/28 06:29:40;;;;;;;23.40;10.07;;;9.70;99.90;;;;;;4115435;28;20118;-71
2021/09/28 06:31:42;;;;;;;23.98;9.43;;;9.80;99.90;;;;;;4126020;28;20034;-70
2021/09/28 06:33:43;;;;;;;21.48;8.48;;;9.80;99.90;;;;;;4126697;28;20496;-71
2021/09/28 06:35:44;;;;;;;32.58;10.38;;;9.90;99.90;;;;;;4103617;28;20070;-71
2021/09/28 06:37:44;;;;;;;21.13;9.70;;;9.90;99.90;;;;;;4130619;28;20517;-72
2021/09/28 06:39:45;;;;;;;24.70;9.43;;;10.00;99.90;;;;;;4114667;28;20047;-71
2021/09/28 06:41:46;;;;;;;22.00;8.15;;;10.00;99.90;;;;;;4132181;28;20053;-72
2021/09/28 06:43:48;;;;;;;26.77;9.05;;;10.00;99.90;;;;;;4115051;28;20051;-72
2021/09/28 06:45:48;;;;;;;21.17;8.57;;;10.10;99.90;;;;;;4112681;28;20053;-72
2021/09/28 06:47:49;;;;;;;19.77;8.48;;;10.10;99.90;;;;;;4113371;28;20521;-72
2021/09/28 06:49:50;;;;;;;25.38;8.68;;;10.10;99.90;;;;;;4114070;28;20054;-71
2021/09/28 06:51:51;;;;;;;20.27;8.63;;;10.20;99.90;;;;;;4116124;28;20074;-71
2021/09/28 06:53:52;;;;;;;21.50;8.65;;;10.20;99.90;;;;;;4113185;28;20047;-70
2021/09/28 06:55:52;;;;;;;19.40;8.27;;;10.30;99.90;;;;;;4115881;28;20442;-72
2021/09/28 06:57:53;;;;;;;18.08;8.40;;;10.30;99.90;;;;;;4116694;28;20034;-71
2021/09/28 06:59:54;;;;;;;26.27;7.63;;;10.30;99.90;;;;;;4116009;28;20042;-71
2021/09/28 07:01:54;;;;;;;19.48;7.93;;;10.30;99.90;;;;;;4114457;28;20047;-71
2021/09/28 07:03:55;;;;;;;20.75;8.43;;;10.30;99.90;;;;;;4107568;28;20047;-71
2021/09/28 07:05:56;;;;;;;18.60;8.10;;;10.40;99.90;;;;;;4114647;28;20108;-71
2021/09/28 07:07:57;;;;;;;19.95;8.30;;;10.40;99.90;;;;;;4113958;28;20047;-71
2021/09/28 07:09:57;;;;;;;17.10;7.20;;;10.50;99.90;;;;;;4130352;28;20101;-71
2021/09/28 07:11:58;;;;;;;19.23;7.60;;;10.50;99.90;;;;;;4109585;28;20053;-72
2021/09/28 07:13:59;;;;;;;16.02;7.40;;;10.60;99.90;;;;;;4114697;28;20038;-71
2021/09/28 07:16:00;;;;;;;21.88;7.22;;;10.60;99.90;;;;;;4113118;28;20046;-72
2021/09/28 07:18:01;;;;;;;19.13;7.30;;;10.70;99.90;;;;;;4115859;28;20482;-71
2021/09/28 07:20:02;;;;;;;21.00;7.78;;;10.80;99.90;;;;;;4126056;28;20618;-71
2021/09/28 07:22:04;;;;;;;22.85;6.82;;;10.80;99.90;;;;;;4101851;28;20497;-71
2021/09/28 07:24:05;;;;;;;19.73;8.40;;;10.80;99.90;;;;;;4115707;28;20035;-72
2021/09/28 07:26:07;;;;;;;23.80;7.93;;;10.90;99.90;;;;;;4115502;28;20038;-71
2021/09/28 07:28:08;;;;;;;21.13;7.40;;;11.00;99.90;;;;;;4109704;28;20038;-70
2021/09/28 07:30:11;;;;;;;21.67;7.22;;;11.00;99.90;;;;;;4112660;28;20435;-70
2021/09/28 07:32:13;;;;;;;17.98;6.50;;;11.20;99.90;;;;;;4097293;28;20491;-71
2021/09/28 07:34:14;;;;;;;23.50;6.80;;;11.30;99.90;;;;;;4119219;28;20045;-71
2021/09/28 07:36:15;;;;;;;16.10;6.97;;;11.40;99.90;;;;;;4109464;28;20082;-71
2021/09/28 07:38:17;;;;;;;13.75;6.00;;;11.40;99.90;;;;;;4109310;28;20067;-71
2021/09/28 07:40:18;;;;;;;22.65;6.70;;;11.50;99.90;;;;;;4113195;28;20050;-71
2021/09/28 07:42:18;;;;;;;21.77;6.55;;;11.60;99.90;;;;;;4122717;28;20027;-71
2021/09/28 07:44:20;;;;;;;19.98;6.35;;;11.60;99.90;;;;;;4112602;28;20038;-70
2021/09/28 07:46:21;;;;;;;22.10;7.07;;;11.70;99.90;;;;;;4111667;28;20031;-71
2021/09/28 07:48:21;;;;;;;23.27;6.43;;;11.80;99.90;;;;;;4128421;28;20532;-72
2021/09/28 07:50:22;;;;;;;22.60;7.63;;;11.80;99.90;;;;;;4111090;28;20046;-71
2021/09/28 07:52:23;;;;;;;17.30;6.65;;;11.80;99.90;;;;;;4128663;28;20038;-70
2021/09/28 07:54:25;;;;;;;21.40;9.52;;;11.90;99.90;;;;;;4124973;28;20041;-71
2021/09/28 07:56:27;;;;;;;23.60;8.43;;;11.90;99.90;;;;;;4112381;28;20086;-70
2021/09/28 07:58:28;;;;;;;23.80;7.60;;;12.00;99.90;;;;;;4128095;28;20513;-71
2021/09/28 08:00:29;;;;;;;15.68;7.10;;;12.20;99.90;;;;;;4114643;28;20042;-71
2021/09/28 08:02:30;;;;;;;18.13;8.45;;;12.20;99.90;;;;;;4114148;28;20090;-72
2021/09/28 08:04:31;;;;;;;19.88;7.03;;;12.20;99.90;;;;;;4111355;28;20372;-71
2021/09/28 08:06:32;;;;;;;20.45;8.05;;;12.30;99.90;;;;;;4113048;28;20041;-71
2021/09/28 08:08:33;;;;;;;15.40;8.95;;;12.30;99.90;;;;;;4116676;28;20035;-71
2021/09/28 08:10:34;;;;;;;17.02;7.60;;;12.40;99.90;;;;;;4110818;28;20035;-71
2021/09/28 08:12:35;;;;;;;14.18;8.38;;;12.50;99.90;;;;;;4111455;28;20030;-71
2021/09/28 08:14:36;;;;;;;15.88;7.28;;;12.60;99.90;;;;;;4114043;28;20050;-71
2021/09/28 08:16:37;;;;;;;18.90;8.13;;;12.60;99.90;;;;;;4105022;28;20031;-71
2021/09/28 08:18:38;;;;;;;19.58;6.78;;;12.70;99.90;;;;;;4093601;28;21466;-71
2021/09/28 08:20:38;;;;;;;16.38;6.13;;;12.80;99.90;;;;;;4102526;28;20553;-71
2021/09/28 08:22:39;;;;;;;9.48;5.63;;;12.80;99.90;;;;;;4099087;28;20030;-72
2021/09/28 08:24:43;;;;;;;17.27;6.43;;;12.90;99.90;;;;;;4098108;28;20125;-71
2021/09/28 08:29:09;;;;;;;12.27;6.03;;;13.10;99.90;;;;;;4097689;28;20559;-70
2021/09/28 08:31:11;;;;;;;17.88;6.03;;;13.20;99.90;;;;;;4096650;28;20031;-71
2021/09/28 08:33:13;;;;;;;12.45;5.45;;;13.30;99.90;;;;;;4101966;28;20553;-71
2021/09/28 08:35:14;;;;;;;13.00;5.68;;;13.40;99.90;;;;;;4101742;28;20593;-71
2021/09/28 08:37:14;;;;;;;14.70;6.40;;;13.50;99.90;;;;;;4113145;28;20117;-71
2021/09/28 08:39:16;;;;;;;23.70;6.75;;;13.60;99.90;;;;;;4101776;28;20023;-70
2021/09/28 08:41:17;;;;;;;17.92;7.57;;;13.60;99.90;;;;;;4117808;28;20637;-71
2021/09/28 08:43:17;;;;;;;18.83;6.13;;;13.70;99.90;;;;;;4098051;28;20030;-71
2021/09/28 08:45:18;;;;;;;12.32;6.30;;;13.90;99.90;;;;;;4097625;28;20066;-71
2021/09/28 08:47:44;;;;;;;14.45;5.07;;;14.00;99.90;;;;;;4099842;28;20704;-70
2021/09/28 08:49:45;;;;;;;16.65;7.03;;;14.10;99.90;;;;;;4100592;28;20047;-75
2021/09/28 08:51:47;;;;;;;16.05;6.57;;;14.10;99.90;;;;;;4095438;28;20043;-75
2021/09/28 08:53:52;;;;;;;19.40;6.05;;;14.20;99.90;;;;;;4104567;28;20039;-76
2021/09/28 08:55:53;;;;;;;12.02;5.00;;;14.30;99.90;;;;;;4111231;28;20041;-75
2021/09/28 08:58:19;;;;;;;15.80;6.15;;;14.30;99.90;;;;;;4096674;28;20380;-75
2021/09/28 09:00:23;;;;;;;17.92;7.03;;;14.40;99.90;;;;;;4116857;28;20038;-75
2021/09/28 09:02:42;;;;;;;15.45;5.88;;;14.50;99.90;;;;;;4117256;28;20050;-75
2021/09/28 09:05:01;;;;;;;14.88;6.50;;;14.50;99.90;;;;;;4116579;28;20888;-75
2021/09/28 09:07:21;;;;;;;9.77;4.68;;;14.60;99.90;;;;;;4111086;28;20473;-75
2021/09/28 09:09:22;;;;;;;12.98;5.85;;;14.70;99.90;;;;;;4109838;28;20054;-76
2021/09/28 09:11:24;;;;;;;17.63;4.75;;;14.70;99.90;;;;;;4117755;28;20117;-76
2021/09/28 09:13:51;;;;;;;19.23;5.53;;;14.80;99.90;;;;;;4105682;28;20098;-76
2021/09/28 09:15:56;;;;;;;13.50;5.85;;;14.90;99.90;;;;;;4110491;28;20043;-76
2021/09/28 09:18:02;;;;;;;13.40;5.70;;;15.00;99.90;;;;;;4111683;28;20045;-76
2021/09/28 09:20:40;;;;;;;15.98;5.60;;;15.20;99.90;;;;;;4103315;28;20105;-76
2021/09/28 09:22:41;;;;;;;18.60;5.75;;;15.50;99.90;;;;;;4109575;28;20135;-75
2021/09/28 09:24:49;;;;;;;14.25;5.50;;;16.00;99.90;;;;;;4114064;28;20547;-76
2021/09/28 09:26:49;;;;;;;13.07;5.95;;;16.20;99.90;;;;;;4110939;28;20677;-76
2021/09/28 09:28:56;;;;;;;19.77;5.68;;;16.50;99.90;;;;;;4125854;28;20165;-76
2021/09/28 09:31:32;;;;;;;20.05;5.22;;;16.80;99.90;;;;;;4124696;28;20034;-75
2021/09/28 09:33:33;;;;;;;16.60;5.05;;;17.00;99.90;;;;;;4112012;28;20102;-75
2021/09/28 09:35:35;;;;;;;14.43;5.68;;;17.30;99.90;;;;;;4123901;28;20070;-76
2021/09/28 09:37:39;;;;;;;12.98;4.82;;;17.50;99.90;;;;;;4127560;28;20085;-76
2021/09/28 09:39:53;;;;;;;15.30;4.40;;;17.60;99.90;;;;;;4108258;28;20098;-74
2021/09/28 09:42:06;;;;;;;11.07;5.22;;;17.90;99.90;;;;;;4123474;28;20034;-74
2021/09/28 09:44:13;;;;;;;;;;;18.20;99.90;;;;;;4100076;28;20371;-75
2021/09/28 09:46:20;;;;;;;19.25;4.68;;;18.60;99.90;;;;;;4109627;28;19922;-75
2021/09/28 09:48:28;;;;;;;20.02;4.70;;;18.70;99.90;;;;;;4123937;28;20046;-74
2021/09/28 09:50:30;;;;;;;16.33;5.55;;;19.00;99.90;;;;;;4125404;28;20553;-74
2021/09/28 09:52:31;;;;;;;15.40;5.40;;;19.30;99.90;;;;;;4099158;28;20031;-74
2021/09/28 09:54:37;;;;;;;11.95;4.47;;;19.30;99.90;;;;;;4111834;28;20122;-75
2021/09/28 09:56:50;;;;;;;13.85;4.95;;;19.40;99.90;;;;;;4122667;28;20053;-74
2021/09/28 09:58:50;;;;;;;18.20;5.53;;;19.50;99.90;;;;;;4126930;28;20165;-75
2021/09/28 10:00:55;;;;;;;15.85;6.95;;;19.90;99.90;;;;;;4116901;28;20046;-74
2021/09/28 10:02:56;;;;;;;13.18;4.32;;;20.20;99.90;;;;;;4118872;28;20042;-74
2021/09/28 10:04:57;;;;;;;10.07;3.67;;;20.20;99.90;;;;;;4114405;28;20486;-73
2021/09/28 10:07:02;;;;;;;13.15;4.35;;;20.60;99.90;;;;;;4111630;28;20039;-75
2021/09/28 10:09:24;;;;;;;9.18;3.92;;;20.70;99.90;;;;;;4106214;28;20035;-73
2021/09/28 10:11:26;;;;;;;13.45;5.03;;;20.70;99.90;;;;;;4119796;28;20059;-74
2021/09/28 10:13:54;;;;;;;10.63;4.35;;;20.90;99.90;;;;;;4101454;28;20129;-75
2021/09/28 10:16:39;;;;;;;14.52;4.85;;;20.70;99.90;;;;;;4114294;28;20113;-75
2021/09/28 10:18:40;;;;;;;14.02;4.57;;;20.80;99.90;;;;;;4125389;28;20042;-74
2021/09/28 10:20:45;;;;;;;14.77;4.68;;;20.90;99.90;;;;;;4113677;28;20487;-74
2021/09/28 10:23:00;;;;;;;14.13;4.30;;;21.30;99.90;;;;;;4127748;28;20552;-75
2021/09/28 10:25:22;;;;;;;9.15;4.03;;;21.50;99.90;;;;;;4111688;28;20035;-73
2021/09/28 10:27:23;;;;;;;13.65;4.10;;;21.60;99.90;;;;;;4109092;28;20042;-73
2021/09/28 10:29:45;;;;;;;21.55;4.40;;;21.20;99.90;;;;;;4112546;28;20501;-73
2021/09/28 10:31:46;;;;;;;9.95;3.85;;;21.30;99.90;;;;;;4112082;28;20129;-73
2021/09/28 10:33:54;;;;;;;11.93;3.38;;;21.50;99.90;;;;;;4115752;28;20082;-73